Time;durP1;ratioP1;P1;durP2;ratioP2;P2;SDS_P1;SDS_P2;PMS_P1;PMS_P2;Temp;Humidity;BMP_temperature;BMP_pressure;BME280_temperature;BME280_humidity;BME280_pressure;Samples;Min_cycle;Max_cycle;Signal;HPM_P1;HPM_P2
2022/01/25 00:10:01;;;;;;;10.85;4.15;;;27.20;96.40;;;;;;5051014;28;20438;-81
2022/01/25 00:31:10;;;;;;;11.07;3.88;;;27.20;95.50;;;;;;5062381;28;20907;-81
2022/01/25 00:33:40;;;;;;;11.00;4.00;;;27.20;95.00;;;;;;5069929;28;20398;-80
2022/01/25 00:36:11;;;;;;;10.18;3.80;;;27.20;95.10;;;;;;5069221;28;20822;-84
2022/01/25 00:38:38;;;;;;;12.48;4.50;;;27.20;94.20;;;;;;5071245;28;20401;-80
2022/01/25 00:41:05;;;;;;;8.45;5.32;;;27.00;93.70;;;;;;5072805;28;20400;-81
2022/01/25 00:43:33;;;;;;;9.67;5.57;;;26.90;93.70;;;;;;5069943;28;20476;-81
2022/01/25 00:46:05;;;;;;;11.52;5.30;;;26.60;93.60;;;;;;5069814;28;20386;-85
2022/01/25 00:48:56;;;;;;;11.43;4.82;;;26.30;94.50;;;;;;5070291;28;20378;-81
2022/01/25 00:54:02;;;;;;;8.10;4.93;;;26.30;95.30;;;;;;5069968;28;20370;-82
2022/01/25 00:56:32;;;;;;;10.23;4.95;;;26.90;95.30;;;;;;5069691;28;20396;-82
2022/01/25 00:59:08;;;;;;;11.02;4.93;;;27.10;94.50;;;;;;5073451;28;20703;-81
2022/01/25 01:01:37;;;;;;;8.43;5.07;;;27.60;94.00;;;;;;5074042;28;20895;-86
2022/01/25 01:04:05;;;;;;;9.48;4.97;;;28.10;92.20;;;;;;5074361;28;20875;-79
2022/01/25 01:06:33;;;;;;;9.40;4.78;;;28.30;91.00;;;;;;5074202;28;20382;-85
2022/01/25 01:09:00;;;;;;;9.63;4.80;;;28.60;87.30;;;;;;5055335;28;20741;-84
2022/01/25 01:11:39;;;;;;;9.23;5.03;;;28.40;89.40;;;;;;5073382;28;20448;-82
2022/01/25 01:30:33;;;;;;;9.38;5.15;;;29.70;81.10;;;;;;5073401;28;20420;-79
2022/01/25 01:48:09;;;;;;;8.02;4.75;;;29.70;81.40;;;;;;5072955;28;20393;-82
2022/01/25 01:50:38;;;;;;;10.65;5.00;;;29.40;82.10;;;;;;5072966;28;20386;-81
2022/01/25 01:53:08;;;;;;;7.85;4.60;;;28.90;83.30;;;;;;5072006;28;20401;-90
2022/01/25 01:55:36;;;;;;;10.95;4.57;;;28.50;85.60;;;;;;5072640;28;20390;-82
2022/01/25 01:58:04;;;;;;;8.38;5.00;;;28.10;87.00;;;;;;5071680;28;20785;-87
2022/01/25 02:00:39;;;;;;;9.20;5.25;;;27.90;88.50;;;;;;5072608;28;20393;-79
2022/01/25 02:03:06;;;;;;;9.52;4.70;;;28.30;88.90;;;;;;5072276;28;20816;-81
2022/01/25 02:05:35;;;;;;;9.02;4.90;;;28.80;85.80;;;;;;5072457;28;20386;-83
2022/01/25 02:08:03;;;;;;;8.55;4.60;;;29.00;86.60;;;;;;5072310;28;20746;-83
2022/01/25 02:10:30;;;;;;;9.00;4.82;;;28.80;85.80;;;;;;5071657;28;20487;-83
2022/01/25 02:12:57;;;;;;;7.47;4.80;;;28.70;86.00;;;;;;5072391;28;20393;-83
2022/01/25 02:15:27;;;;;;;8.87;5.20;;;28.60;87.10;;;;;;5072180;28;20402;-82
2022/01/25 02:23:30;;;;;;;7.85;5.43;;;28.60;85.20;;;;;;5071962;28;20428;-82
2022/01/25 02:26:01;;;;;;;7.90;5.60;;;28.70;82.10;;;;;;5072189;28;20389;-83
2022/01/25 02:28:37;;;;;;;9.52;5.60;;;28.50;83.20;;;;;;5071947;28;20873;-84
2022/01/25 02:31:06;;;;;;;8.60;5.60;;;28.40;86.20;;;;;;5072314;28;20775;-81
2022/01/25 02:33:34;;;;;;;8.07;5.20;;;28.70;85.10;;;;;;5072286;28;20389;-84
2022/01/25 02:36:04;;;;;;;10.77;5.90;;;28.80;82.10;;;;;;5070979;28;20456;-85
2022/01/25 02:38:33;;;;;;;8.50;5.60;;;28.60;83.20;;;;;;5072052;28;20473;-85
2022/01/25 02:41:00;;;;;;;11.07;6.00;;;28.50;80.50;;;;;;5071404;28;20873;-84
2022/01/25 02:43:29;;;;;;;8.85;6.20;;;28.40;84.10;;;;;;5071282;28;20393;-82
2022/01/25 02:48:29;;;;;;;9.68;6.28;;;28.70;84.40;;;;;;5071653;28;20375;-82
2022/01/25 02:49:08;;;;;;;8.00;5.95;;;29.10;82.20;;;;;;5063842;28;20741;-81
2022/01/25 02:51:41;;;;;;;9.40;6.22;;;29.40;81.20;;;;;;5071572;28;20386;-85
2022/01/25 02:54:09;;;;;;;12.73;6.00;;;29.60;79.70;;;;;;5066651;28;20382;-81
2022/01/25 02:56:38;;;;;;;9.38;5.85;;;29.70;79.00;;;;;;5071653;28;20405;-84
2022/01/25 02:59:07;;;;;;;8.75;6.10;;;30.00;76.50;;;;;;5072189;28;20385;-87
2022/01/25 03:01:36;;;;;;;9.90;5.80;;;30.40;75.30;;;;;;5071234;28;20390;-82
2022/01/25 03:04:05;;;;;;;8.00;5.77;;;30.60;74.80;;;;;;5070225;28;20386;-85
2022/01/25 03:06:32;;;;;;;8.03;5.70;;;30.70;74.10;;;;;;5071766;28;20374;-85
2022/01/25 03:09:00;;;;;;;8.00;5.63;;;30.70;72.50;;;;;;5071818;28;20383;-84
2022/01/25 03:11:27;;;;;;;8.23;5.70;;;30.50;72.60;;;;;;5071776;28;20386;-88
2022/01/25 03:13:59;;;;;;;8.80;6.25;;;30.40;75.50;;;;;;5071752;28;20872;-83
2022/01/25 03:16:37;;;;;;;6.50;5.30;;;31.60;75.10;;;;;;5071957;28;20382;-84
2022/01/25 03:21:57;;;;;;;6.80;5.30;;;34.10;62.80;;;;;;5070684;28;20474;-89
2022/01/25 03:24:25;;;;;;;6.63;5.30;;;35.30;58.60;;;;;;5071714;28;20948;-84
2022/01/25 03:26:52;;;;;;;6.13;4.80;;;36.50;56.60;;;;;;5071550;28;20396;-86
2022/01/25 03:29:19;;;;;;;6.25;5.10;;;37.00;53.20;;;;;;5071306;28;20416;-84
2022/01/25 03:31:47;;;;;;;7.07;4.88;;;36.60;54.60;;;;;;5071544;28;20784;-83
2022/01/25 03:34:14;;;;;;;8.15;4.95;;;36.00;56.50;;;;;;5071498;28;20401;-87
2022/01/25 03:36:42;;;;;;;7.53;5.10;;;35.10;55.80;;;;;;5071587;28;20413;-84
2022/01/25 03:39:09;;;;;;;8.53;5.17;;;34.30;57.70;;;;;;5071347;28;20390;-83
2022/01/25 03:41:36;;;;;;;7.80;5.18;;;33.50;59.30;;;;;;5071053;28;20398;-83
2022/01/25 03:44:04;;;;;;;9.35;5.20;;;32.70;60.40;;;;;;5071057;28;20386;-86
2022/01/25 03:46:39;;;;;;;7.72;5.15;;;32.20;61.40;;;;;;5072741;28;20389;-84
2022/01/25 03:51:53;;;;;;;8.90;5.35;;;31.30;65.70;;;;;;5073119;28;20361;-81
2022/01/25 03:54:20;;;;;;;7.72;5.20;;;30.60;67.80;;;;;;5072683;28;20367;-77
2022/01/25 03:56:48;;;;;;;8.35;5.47;;;30.40;69.60;;;;;;5072723;28;20375;-82
2022/01/25 03:59:15;;;;;;;10.02;5.15;;;30.30;70.80;;;;;;5072741;28;20459;-83
2022/01/25 04:01:42;;;;;;;7.55;5.22;;;30.40;70.90;;;;;;5072583;28;20390;-82
2022/01/25 04:04:13;;;;;;;8.38;5.15;;;30.60;69.90;;;;;;5072458;28;20397;-83
2022/01/25 04:06:44;;;;;;;9.50;5.30;;;30.90;69.90;;;;;;5072479;28;20445;-79
2022/01/25 04:09:11;;;;;;;9.13;5.40;;;31.10;69.00;;;;;;5072336;28;20453;-81
2022/01/25 04:11:38;;;;;;;8.18;5.20;;;31.50;68.40;;;;;;5073154;28;20377;-81
2022/01/25 04:14:07;;;;;;;7.40;5.00;;;32.20;66.60;;;;;;5074502;28;20370;-82
2022/01/25 04:17:00;;;;;;;7.47;4.93;;;32.70;64.20;;;;;;5072251;28;20373;-82
2022/01/25 04:19:32;;;;;;;9.45;5.40;;;33.00;62.70;;;;;;5071683;28;20457;-82
2022/01/25 04:27:34;;;;;;;7.07;4.90;;;31.70;64.40;;;;;;5072542;28;20374;-90
2022/01/25 04:30:03;;;;;;;7.93;4.93;;;31.80;67.10;;;;;;5072203;28;20463;-86
2022/01/25 05:05:35;;;;;;;6.43;4.32;;;34.80;59.30;;;;;;5072220;28;20370;-86
2022/01/25 05:08:16;;;;;;;7.03;4.50;;;35.20;56.80;;;;;;5071679;28;20381;-80
2022/01/25 05:11:02;;;;;;;7.80;4.50;;;34.70;57.80;;;;;;5071616;28;20367;-82
2022/01/25 05:24:16;;;;;;;7.10;4.33;;;32.20;64.80;;;;;;5072240;28;20374;-81
2022/01/25 05:26:43;;;;;;;7.65;4.72;;;32.80;62.80;;;;;;5071519;28;20373;-83
2022/01/25 05:29:10;;;;;;;8.40;4.50;;;33.60;59.80;;;;;;5071656;28;20464;-84
2022/01/25 05:31:38;;;;;;;7.43;4.60;;;34.30;58.10;;;;;;5071737;28;20370;-83
2022/01/25 05:34:08;;;;;;;10.23;4.65;;;34.10;57.30;;;;;;5072513;28;20400;-84
2022/01/25 05:36:37;;;;;;;8.18;4.70;;;33.30;59.20;;;;;;5071721;28;20366;-86
2022/01/25 05:39:21;;;;;;;8.35;5.05;;;32.50;61.40;;;;;;5071386;28;20410;-81
2022/01/25 05:41:54;;;;;;;8.37;5.10;;;31.60;63.10;;;;;;5071409;28;20390;-80
2022/01/25 05:44:40;;;;;;;8.60;5.30;;;31.20;63.80;;;;;;5072003;28;20374;-81
2022/01/25 05:47:12;;;;;;;8.73;5.13;;;30.90;65.50;;;;;;5074902;28;20374;-83
2022/01/25 05:49:41;;;;;;;8.30;4.80;;;30.70;65.90;;;;;;5075269;28;20795;-81
2022/01/25 05:52:09;;;;;;;7.72;4.80;;;30.70;66.90;;;;;;5075044;28;20403;-83
2022/01/25 05:54:38;;;;;;;9.80;5.03;;;30.60;67.50;;;;;;5075618;28;20468;-83
2022/01/25 05:57:06;;;;;;;8.52;4.18;;;30.20;68.40;;;;;;5075462;28;20362;-84
2022/01/25 05:59:33;;;;;;;8.95;4.30;;;30.20;69.60;;;;;;5074774;28;20464;-82
2022/01/25 06:02:00;;;;;;;9.02;5.43;;;30.10;70.40;;;;;;5074522;28;20402;-81
2022/01/25 06:04:28;;;;;;;13.93;10.40;;;30.00;70.00;;;;;;5074759;28;20381;-82
2022/01/25 06:06:54;;;;;;;8.07;4.80;;;29.70;70.60;;;;;;5074674;28;20848;-83
2022/01/25 06:09:25;;;;;;;10.27;3.80;;;29.30;72.20;;;;;;5074708;28;20457;-83
2022/01/25 06:11:56;;;;;;;8.60;3.63;;;29.10;73.80;;;;;;5074748;28;20729;-83
2022/01/25 06:14:23;;;;;;;7.15;3.70;;;28.90;75.10;;;;;;5056660;28;20869;-84
2022/01/25 06:16:50;;;;;;;9.57;3.67;;;28.70;75.80;;;;;;5074624;28;20374;-82
2022/01/25 06:19:17;;;;;;;6.53;3.80;;;28.50;76.20;;;;;;5074562;28;20373;-84
2022/01/25 06:21:44;;;;;;;10.27;3.90;;;28.50;77.20;;;;;;5074481;28;20471;-84
2022/01/25 06:24:10;;;;;;;9.30;3.80;;;28.50;77.30;;;;;;5074496;28;20385;-83
2022/01/25 06:26:37;;;;;;;7.43;3.60;;;28.50;77.40;;;;;;5074486;28;20374;-83
2022/01/25 06:29:04;;;;;;;8.60;3.90;;;28.40;78.30;;;;;;5074327;28;20381;-83
2022/01/25 06:31:31;;;;;;;8.45;3.88;;;28.20;78.90;;;;;;5074590;28;20861;-80
2022/01/25 06:34:00;;;;;;;7.63;3.70;;;28.10;79.10;;;;;;5056332;28;20390;-85
2022/01/25 06:36:27;;;;;;;7.57;3.58;;;27.90;80.60;;;;;;5056418;28;20788;-82
2022/01/25 06:38:54;;;;;;;8.40;3.63;;;27.80;81.40;;;;;;5074243;28;20381;-86
2022/01/25 06:41:21;;;;;;;6.30;3.40;;;27.70;82.40;;;;;;5073922;28;20444;-83
2022/01/25 06:43:48;;;;;;;6.88;3.58;;;27.60;82.60;;;;;;5074595;28;20869;-84
2022/01/25 06:46:15;;;;;;;9.73;3.90;;;27.60;82.90;;;;;;5074441;28;20374;-84
2022/01/25 06:48:42;;;;;;;7.85;3.80;;;27.70;83.20;;;;;;5073881;28;20884;-82
2022/01/25 06:51:09;;;;;;;8.57;3.95;;;27.80;84.20;;;;;;5074000;28;20385;-83
2022/01/25 06:53:36;;;;;;;9.88;3.70;;;28.00;83.30;;;;;;5074396;28;20378;-81
2022/01/25 06:56:05;;;;;;;7.13;3.50;;;28.20;82.00;;;;;;5073693;28;20369;-80
2022/01/25 06:58:33;;;;;;;8.10;3.40;;;28.40;81.30;;;;;;5074048;28;20410;-85
2022/01/25 07:01:00;;;;;;;11.00;3.58;;;28.30;81.50;;;;;;5074794;28;20432;-85
2022/01/25 07:03:27;;;;;;;8.32;3.35;;;28.40;81.30;;;;;;5073623;28;20402;-81
2022/01/25 07:05:54;;;;;;;5.97;3.10;;;28.30;81.80;;;;;;5073739;28;20842;-86
2022/01/25 07:08:21;;;;;;;9.07;3.10;;;28.40;81.00;;;;;;5073620;28;20373;-85
2022/01/25 07:10:48;;;;;;;7.88;3.15;;;28.20;81.40;;;;;;5073773;28;20892;-82
2022/01/25 07:13:15;;;;;;;7.70;2.97;;;28.00;83.10;;;;;;5073538;28;20397;-80
2022/01/25 07:15:42;;;;;;;7.15;3.20;;;27.90;82.80;;;;;;5055305;28;20377;-80
2022/01/25 07:18:09;;;;;;;5.85;2.90;;;28.00;83.60;;;;;;5072970;28;20366;-83
2022/01/25 07:20:36;;;;;;;7.43;2.88;;;27.90;84.10;;;;;;5073289;28;20373;-84
2022/01/25 07:23:03;;;;;;;6.07;2.83;;;27.80;84.00;;;;;;5073248;28;20397;-82
2022/01/25 07:25:30;;;;;;;7.43;2.85;;;27.60;85.80;;;;;;5073303;28;20368;-80
2022/01/25 07:27:57;;;;;;;8.90;3.10;;;27.50;85.60;;;;;;5073327;28;20736;-84
2022/01/25 07:30:24;;;;;;;5.55;2.83;;;27.60;85.40;;;;;;5073179;28;20884;-80
2022/01/25 07:32:51;;;;;;;6.00;2.60;;;27.40;85.50;;;;;;5055179;28;20382;-84
2022/01/25 07:35:18;;;;;;;6.63;2.90;;;27.20;87.00;;;;;;5055144;28;20375;-81
2022/01/25 07:37:45;;;;;;;6.88;2.63;;;26.80;87.10;;;;;;5074020;28;20406;-77
2022/01/25 07:40:13;;;;;;;8.40;2.72;;;26.60;88.30;;;;;;5055300;28;20389;-81
2022/01/25 07:42:41;;;;;;;6.70;2.67;;;26.60;89.00;;;;;;5074197;28;20485;-80
2022/01/25 07:45:11;;;;;;;7.65;2.63;;;26.50;89.50;;;;;;5075568;28;20362;-80
2022/01/25 07:47:39;;;;;;;7.13;2.45;;;26.40;90.50;;;;;;5056563;28;20758;-80
2022/01/25 07:50:07;;;;;;;6.18;2.38;;;26.10;90.80;;;;;;5073185;28;20390;-81
2022/01/25 07:52:35;;;;;;;7.72;2.33;;;25.90;91.50;;;;;;5072720;28;20381;-83
2022/01/25 07:55:03;;;;;;;7.60;2.50;;;25.90;92.00;;;;;;5072589;28;20412;-81
2022/01/25 07:57:30;;;;;;;9.70;2.60;;;25.70;92.50;;;;;;5072617;28;20433;-83
2022/01/25 07:59:58;;;;;;;7.13;2.30;;;25.60;93.00;;;;;;5072893;28;20441;-83
2022/01/25 08:02:25;;;;;;;6.53;2.50;;;25.50;93.50;;;;;;5072719;28;20402;-83
2022/01/25 08:04:53;;;;;;;8.02;2.80;;;25.50;93.90;;;;;;5072577;28;20473;-82
2022/01/25 08:07:20;;;;;;;9.07;2.60;;;25.50;94.20;;;;;;5072035;28;20385;-82
2022/01/25 08:09:47;;;;;;;7.68;2.33;;;25.40;94.10;;;;;;5073314;28;20737;-85
2022/01/25 08:12:15;;;;;;;6.65;2.30;;;25.30;94.90;;;;;;5073329;28;20373;-86
2022/01/25 08:14:44;;;;;;;8.00;2.43;;;25.30;95.20;;;;;;5072330;28;20457;-85
2022/01/25 08:17:11;;;;;;;5.88;2.10;;;25.40;95.00;;;;;;5072378;28;20432;-83
2022/01/25 08:19:38;;;;;;;9.43;2.47;;;25.40;94.60;;;;;;5072625;28;20371;-87
2022/01/25 08:22:05;;;;;;;5.57;2.07;;;25.40;94.70;;;;;;5072677;28;20386;-83
2022/01/25 08:24:32;;;;;;;8.37;2.27;;;25.20;94.90;;;;;;5073341;28;20382;-85
2022/01/25 08:27:00;;;;;;;6.85;2.10;;;25.20;95.40;;;;;;5072232;28;20366;-80
2022/01/25 08:29:27;;;;;;;6.78;2.10;;;25.10;95.20;;;;;;5072052;28;20386;-84
2022/01/25 08:31:54;;;;;;;8.13;2.03;;;25.00;95.30;;;;;;5072220;28;20362;-82
2022/01/25 08:34:20;;;;;;;7.55;2.10;;;25.00;95.50;;;;;;5072192;28;20378;-80
2022/01/25 08:36:47;;;;;;;7.38;2.33;;;24.90;95.70;;;;;;5072700;28;20366;-87
2022/01/25 08:39:15;;;;;;;9.75;2.10;;;24.80;95.80;;;;;;5072770;28;20386;-85
2022/01/25 08:41:42;;;;;;;7.45;1.90;;;24.70;96.20;;;;;;5071614;28;20438;-84
2022/01/25 08:44:09;;;;;;;6.15;2.05;;;24.50;96.50;;;;;;5072098;28;20374;-85
2022/01/25 08:46:36;;;;;;;6.18;1.70;;;24.40;96.90;;;;;;5072079;28;20435;-85
2022/01/25 08:49:03;;;;;;;7.28;1.90;;;24.30;97.10;;;;;;5072067;28;20378;-83
2022/01/25 08:51:30;;;;;;;9.15;1.90;;;24.20;97.60;;;;;;5071918;28;20362;-79
2022/01/25 08:53:59;;;;;;;8.07;2.28;;;24.00;98.10;;;;;;5071967;28;20392;-79
2022/01/25 08:56:26;;;;;;;7.33;2.00;;;24.00;98.30;;;;;;5071893;28;20370;-79
2022/01/25 08:58:54;;;;;;;7.87;1.93;;;23.90;98.40;;;;;;5071683;28;20872;-78
2022/01/25 09:01:21;;;;;;;6.82;1.92;;;23.90;98.40;;;;;;5071758;28;20463;-77
2022/01/25 09:03:49;;;;;;;5.22;1.75;;;23.90;98.60;;;;;;5071874;28;20374;-78
2022/01/25 09:06:17;;;;;;;6.30;1.90;;;23.80;98.90;;;;;;5071750;28;20376;-77
2022/01/25 09:08:44;;;;;;;6.32;2.00;;;23.70;99.00;;;;;;5071879;28;20385;-83
2022/01/25 09:11:11;;;;;;;8.55;1.90;;;23.70;99.20;;;;;;5071791;28;20768;-80
2022/01/25 09:13:40;;;;;;;8.13;1.85;;;23.60;99.10;;;;;;5071614;28;20374;-82
2022/01/25 09:16:07;;;;;;;6.95;1.80;;;23.50;99.70;;;;;;5071577;28;20780;-79
2022/01/25 09:18:35;;;;;;;5.68;1.60;;;23.40;99.90;;;;;;5072480;28;20464;-82
2022/01/25 09:21:02;;;;;;;10.40;1.80;;;23.30;99.90;;;;;;5075477;28;20706;-80
2022/01/25 09:23:29;;;;;;;7.65;1.90;;;23.20;99.90;;;;;;5075565;28;20455;-83
2022/01/25 09:25:56;;;;;;;9.10;2.03;;;23.10;99.90;;;;;;5075690;28;20366;-80
2022/01/25 09:28:24;;;;;;;7.15;2.08;;;23.00;99.90;;;;;;5075560;28;20379;-83
2022/01/25 09:30:51;;;;;;;7.20;1.83;;;22.90;99.90;;;;;;5075592;28;20424;-80
2022/01/25 09:33:18;;;;;;;7.45;1.70;;;22.80;99.90;;;;;;5075494;28;20385;-87
2022/01/25 09:35:46;;;;;;;7.32;1.67;;;22.80;99.90;;;;;;5075440;28;20370;-89
2022/01/25 09:38:13;;;;;;;7.67;2.00;;;22.80;99.90;;;;;;5075412;28;20374;-83
2022/01/25 09:40:40;;;;;;;7.23;1.80;;;22.90;99.90;;;;;;5053837;28;20759;-79
2022/01/25 09:43:08;;;;;;;5.70;1.75;;;22.90;99.90;;;;;;5055317;28;20388;-80
2022/01/25 09:45:36;;;;;;;8.45;2.08;;;22.90;99.90;;;;;;5055266;28;20383;-83
2022/01/25 09:48:05;;;;;;;6.28;1.77;;;22.90;99.90;;;;;;5054023;28;20392;-82
2022/01/25 09:50:32;;;;;;;5.72;1.70;;;23.00;99.90;;;;;;5055270;28;20371;-82
2022/01/25 09:53:00;;;;;;;5.43;1.42;;;23.10;99.90;;;;;;5055177;28;20407;-84
2022/01/25 09:55:33;;;;;;;7.43;1.77;;;23.20;99.90;;;;;;5055130;28;20371;-80
2022/01/25 09:58:02;;;;;;;8.00;1.77;;;23.20;99.90;;;;;;5055177;28;20380;-84
2022/01/25 10:00:31;;;;;;;7.20;1.67;;;23.30;99.90;;;;;;5053928;28;20455;-82
2022/01/25 10:03:39;;;;;;;7.22;1.90;;;23.40;99.90;;;;;;5055001;28;20924;-84
2022/01/25 10:06:20;;;;;;;7.07;1.70;;;23.30;99.90;;;;;;5055644;28;20398;-84
2022/01/25 10:08:52;;;;;;;6.55;1.63;;;23.30;99.90;;;;;;5055073;28;20355;-83
2022/01/25 10:11:23;;;;;;;7.73;1.83;;;23.20;99.90;;;;;;5054761;28;20419;-82
2022/01/25 10:13:57;;;;;;;6.13;1.73;;;23.20;99.90;;;;;;5054816;28;20372;-79
2022/01/25 10:16:34;;;;;;;8.95;1.77;;;23.00;99.90;;;;;;5054886;28;20780;-83
2022/01/25 10:19:04;;;;;;;6.85;1.60;;;22.90;99.90;;;;;;5054817;28;20738;-82
2022/01/25 10:21:37;;;;;;;5.80;1.70;;;22.90;99.90;;;;;;5055438;28;20720;-84
2022/01/25 10:24:24;;;;;;;6.68;1.98;;;22.90;99.90;;;;;;5054704;28;20402;-79
2022/01/25 10:26:59;;;;;;;7.07;2.10;;;22.90;99.90;;;;;;5054381;28;20364;-83
2022/01/25 10:29:34;;;;;;;9.02;1.70;;;22.90;99.90;;;;;;5055148;28;20399;-84
2022/01/25 10:32:04;;;;;;;6.77;1.90;;;22.80;99.90;;;;;;5053837;28;20383;-80
2022/01/25 10:34:41;;;;;;;7.77;1.83;;;22.80;99.90;;;;;;5054959;28;20433;-84
2022/01/25 10:37:19;;;;;;;6.88;1.70;;;22.70;99.90;;;;;;5054315;28;20360;-84
2022/01/25 10:39:49;;;;;;;8.52;1.80;;;22.70;99.90;;;;;;5054873;28;20379;-82
2022/01/25 10:42:26;;;;;;;8.43;1.63;;;22.70;99.90;;;;;;5071709;28;20424;-84
2022/01/25 10:45:02;;;;;;;5.82;1.73;;;22.70;99.90;;;;;;5074210;28;20366;-80
2022/01/25 10:47:50;;;;;;;6.87;1.63;;;22.60;99.90;;;;;;5074189;28;20363;-84
2022/01/25 10:50:26;;;;;;;6.70;1.70;;;22.70;99.90;;;;;;5073811;28;20453;-84
2022/01/25 10:53:15;;;;;;;7.80;1.85;;;22.70;99.90;;;;;;5073807;28;20390;-80
2022/01/25 10:55:46;;;;;;;6.55;1.70;;;22.60;99.90;;;;;;5073716;28;20383;-82
2022/01/25 10:58:14;;;;;;;5.30;1.77;;;22.60;99.90;;;;;;5073884;28;20366;-80
2022/01/25 11:00:44;;;;;;;4.95;1.60;;;22.50;99.90;;;;;;5073859;28;20376;-85
2022/01/25 11:03:24;;;;;;;6.88;1.60;;;22.50;99.90;;;;;;5073392;28;20403;-80
2022/01/25 11:05:51;;;;;;;7.40;1.70;;;22.50;99.90;;;;;;5073945;28;20401;-83
2022/01/25 11:08:21;;;;;;;5.90;1.55;;;22.60;99.90;;;;;;5074028;28;20374;-81
2022/01/25 11:10:57;;;;;;;5.78;1.80;;;22.60;99.90;;;;;;5074983;28;20769;-78
2022/01/25 11:15:59;;;;;;;6.82;1.70;;;22.60;99.90;;;;;;5076872;28;20928;-78
2022/01/25 11:18:27;;;;;;;6.75;1.63;;;22.50;99.90;;;;;;5073484;28;20431;-81
2022/01/25 11:20:56;;;;;;;8.27;1.87;;;22.50;99.90;;;;;;5073291;28;20374;-82
2022/01/25 11:23:23;;;;;;;8.68;1.95;;;22.40;99.90;;;;;;5073006;28;20398;-79
2022/01/25 11:25:51;;;;;;;7.35;1.85;;;22.40;99.90;;;;;;5073360;28;20880;-84
2022/01/25 11:28:18;;;;;;;7.82;1.80;;;22.30;99.90;;;;;;5073382;28;20393;-82
2022/01/25 11:30:48;;;;;;;6.65;1.70;;;22.30;99.90;;;;;;5073731;28;20397;-82
2022/01/25 11:33:18;;;;;;;8.48;2.00;;;22.40;99.90;;;;;;5073032;28;20427;-83
2022/01/25 11:35:45;;;;;;;7.63;1.85;;;22.30;99.90;;;;;;5073091;28;20445;-80
2022/01/25 11:38:13;;;;;;;6.43;1.90;;;22.30;99.90;;;;;;5072897;28;20451;-83
2022/01/25 11:40:45;;;;;;;6.93;1.85;;;22.20;99.90;;;;;;5072674;28;20389;-84
2022/01/25 11:43:17;;;;;;;8.35;1.90;;;22.20;99.90;;;;;;5071856;28;20401;-80
2022/01/25 11:45:49;;;;;;;7.40;1.90;;;22.30;99.90;;;;;;5073155;28;20741;-82
2022/01/25 11:48:36;;;;;;;6.72;1.80;;;22.20;99.90;;;;;;5072614;28;20451;-80
2022/01/25 11:51:12;;;;;;;9.80;2.08;;;22.20;99.90;;;;;;5072639;28;20362;-80
2022/01/25 11:53:43;;;;;;;8.10;2.00;;;22.10;99.90;;;;;;5072568;28;20517;-80
2022/01/25 11:56:12;;;;;;;6.70;1.92;;;22.20;99.90;;;;;;5072553;28;20390;-82
2022/01/25 11:58:41;;;;;;;6.75;1.70;;;22.20;99.90;;;;;;5072524;28;20992;-82
2022/01/25 12:01:19;;;;;;;6.90;2.03;;;22.20;99.90;;;;;;5072754;28;20382;-82
2022/01/25 12:03:50;;;;;;;7.90;2.40;;;22.20;99.90;;;;;;5072529;28;20459;-81
2022/01/25 12:06:26;;;;;;;7.37;2.00;;;22.30;99.90;;;;;;5072656;28;20453;-84
2022/01/25 12:09:31;;;;;;;6.40;1.80;;;22.30;99.90;;;;;;5072343;28;20369;-84
2022/01/25 12:12:08;;;;;;;7.03;1.90;;;22.30;99.90;;;;;;5072253;28;20379;-83
2022/01/25 12:14:56;;;;;;;8.60;1.90;;;22.40;99.90;;;;;;5072434;28;20377;-82
2022/01/25 12:17:33;;;;;;;6.47;1.67;;;22.40;99.90;;;;;;5072610;28;20432;-82
2022/01/25 12:20:04;;;;;;;8.67;1.87;;;22.40;99.90;;;;;;5072137;28;20439;-82
2022/01/25 12:22:37;;;;;;;8.88;2.03;;;22.40;99.90;;;;;;5072487;28;20406;-83
2022/01/25 12:26:03;;;;;;;7.68;2.03;;;22.40;99.90;;;;;;5054321;28;20401;-82
2022/01/25 12:28:21;;;;;;;7.00;1.80;;;22.40;99.90;;;;;;5061159;28;20385;-82
2022/01/25 12:30:48;;;;;;;5.55;1.80;;;22.40;99.90;;;;;;5072014;28;20425;-83
2022/01/25 12:33:29;;;;;;;6.88;1.90;;;22.40;99.90;;;;;;5072103;28;20858;-83
2022/01/25 12:36:03;;;;;;;5.97;1.67;;;22.40;99.90;;;;;;5072007;28;20378;-82
2022/01/25 12:38:38;;;;;;;8.00;1.70;;;22.40;99.90;;;;;;5072716;28;20744;-82
2022/01/25 12:41:13;;;;;;;7.73;2.00;;;22.40;99.90;;;;;;5050522;28;20461;-81
2022/01/25 12:43:45;;;;;;;9.35;1.75;;;22.30;99.90;;;;;;5052193;28;20439;-81
2022/01/25 12:46:18;;;;;;;6.75;1.70;;;22.20;99.90;;;;;;5052013;28;20458;-82
2022/01/25 12:48:48;;;;;;;7.15;1.70;;;22.10;99.90;;;;;;5051920;28;20388;-82
2022/01/25 12:51:22;;;;;;;7.75;1.85;;;22.10;99.90;;;;;;5052235;28;20807;-83
2022/01/25 12:53:51;;;;;;;7.03;2.00;;;22.00;99.90;;;;;;5050403;28;20384;-80
2022/01/25 12:56:24;;;;;;;8.73;1.83;;;21.90;99.90;;;;;;5051769;28;20387;-79
2022/01/25 12:58:54;;;;;;;8.25;1.80;;;21.90;99.90;;;;;;5051866;28;20375;-78
2022/01/25 13:01:24;;;;;;;8.27;2.20;;;21.80;99.90;;;;;;5051768;28;20871;-79
2022/01/25 13:03:59;;;;;;;8.55;1.85;;;21.80;99.90;;;;;;5051660;28;20383;-79
2022/01/25 13:06:32;;;;;;;7.47;1.83;;;21.80;99.90;;;;;;5051669;28;20372;-82
2022/01/25 13:09:13;;;;;;;8.00;1.95;;;21.80;99.90;;;;;;5051730;28;20364;-81
2022/01/25 13:17:20;;;;;;;6.13;1.80;;;22.00;99.90;;;;;;5051656;28;20846;-80
2022/01/25 13:19:56;;;;;;;6.13;1.90;;;22.00;99.90;;;;;;5051683;28;20368;-83
2022/01/25 13:22:42;;;;;;;8.10;1.92;;;22.00;99.90;;;;;;5051523;28;20466;-80
2022/01/25 13:27:54;;;;;;;8.48;1.90;;;22.10;99.90;;;;;;5051806;28;20368;-83
2022/01/25 13:33:14;;;;;;;7.65;2.10;;;22.10;99.90;;;;;;5052062;28;20387;-80
2022/01/25 13:35:47;;;;;;;8.48;1.92;;;22.10;99.90;;;;;;5051423;28;20732;-82
2022/01/25 13:38:19;;;;;;;6.75;1.70;;;22.10;99.90;;;;;;5051801;28;20421;-80
2022/01/25 13:40:57;;;;;;;6.70;1.90;;;22.10;99.90;;;;;;5056163;28;20784;-81
2022/01/25 13:46:17;;;;;;;6.50;1.88;;;22.70;99.90;;;;;;5071744;28;20765;-81
2022/01/25 13:48:46;;;;;;;5.45;1.70;;;22.20;99.90;;;;;;5053661;28;20733;-78
2022/01/25 13:51:18;;;;;;;7.75;1.70;;;22.20;99.90;;;;;;5071180;28;20373;-79
2022/01/25 13:53:57;;;;;;;6.38;1.70;;;22.20;99.90;;;;;;5071496;28;20411;-79
2022/01/25 13:56:29;;;;;;;8.30;1.93;;;22.20;99.90;;;;;;5071261;28;20833;-79
2022/01/25 13:58:57;;;;;;;7.03;1.73;;;22.20;99.90;;;;;;5071429;28;20370;-79
2022/01/25 14:01:27;;;;;;;7.60;1.83;;;22.20;99.90;;;;;;5053390;28;20404;-80
2022/01/25 14:03:59;;;;;;;6.60;1.90;;;22.20;99.90;;;;;;5071194;28;20389;-79
2022/01/25 14:06:28;;;;;;;8.32;1.80;;;22.20;99.90;;;;;;5073133;28;20382;-80
2022/01/25 14:09:15;;;;;;;8.20;1.95;;;22.10;99.90;;;;;;5074582;28;20369;-81
2022/01/25 14:25:41;;;;;;;7.88;1.92;;;22.20;99.90;;;;;;5075091;28;20921;-82
2022/01/25 14:28:18;;;;;;;7.60;1.70;;;22.20;99.90;;;;;;5074287;28;20375;-79
2022/01/25 14:30:48;;;;;;;6.80;1.90;;;22.20;99.90;;;;;;5074471;28;20369;-80
2022/01/25 14:33:17;;;;;;;8.85;1.92;;;22.20;99.90;;;;;;5074967;28;20458;-79
2022/01/25 14:35:56;;;;;;;7.85;2.08;;;22.10;99.90;;;;;;5074538;28;20392;-81
2022/01/25 14:38:26;;;;;;;9.35;2.15;;;22.10;99.90;;;;;;5077863;28;20377;-77
2022/01/25 14:41:12;;;;;;;6.85;2.00;;;22.10;99.90;;;;;;5076343;28;20405;-79
2022/01/25 14:43:53;;;;;;;8.95;2.10;;;22.10;99.90;;;;;;5073962;28;20410;-82
2022/01/25 14:46:24;;;;;;;9.65;1.98;;;22.10;99.90;;;;;;5074355;28;20438;-79
2022/01/25 14:49:18;;;;;;;9.33;2.07;;;22.10;99.90;;;;;;5056260;28;20712;-78
2022/01/25 14:51:48;;;;;;;9.45;1.92;;;22.10;99.90;;;;;;5073936;28;20877;-79
2022/01/25 14:54:24;;;;;;;8.07;2.00;;;22.10;99.90;;;;;;5073832;28;20398;-78
2022/01/25 14:56:56;;;;;;;8.95;2.00;;;22.10;99.90;;;;;;5073890;28;20402;-79
2022/01/25 14:59:47;;;;;;;8.10;2.05;;;22.10;99.90;;;;;;5073736;28;20829;-81
2022/01/25 15:02:20;;;;;;;7.88;2.08;;;22.10;99.90;;;;;;5073546;28;20398;-79
2022/01/25 15:04:55;;;;;;;7.80;1.88;;;22.10;99.90;;;;;;5074213;28;20380;-79
2022/01/25 15:07:25;;;;;;;7.72;1.90;;;22.10;99.90;;;;;;5073594;28;20362;-81
2022/01/25 15:09:58;;;;;;;8.10;2.08;;;22.10;99.90;;;;;;5073602;28;20457;-78
2022/01/25 15:12:31;;;;;;;7.85;1.80;;;22.10;99.90;;;;;;5073456;28;20370;-80
2022/01/25 15:17:28;;;;;;;7.63;1.67;;;22.00;99.90;;;;;;5073714;28;20846;-78
2022/01/25 15:19:55;;;;;;;7.45;1.80;;;21.90;99.90;;;;;;5073380;28;20382;-82
2022/01/25 15:22:24;;;;;;;7.47;1.67;;;22.10;99.90;;;;;;5073347;28;20398;-83
2022/01/25 15:24:52;;;;;;;8.23;1.88;;;22.00;99.90;;;;;;5073352;28;20405;-79
2022/01/25 15:27:27;;;;;;;5.67;1.80;;;22.00;99.90;;;;;;5055375;28;20396;-78
2022/01/25 15:29:54;;;;;;;7.35;1.95;;;22.00;99.90;;;;;;5073060;28;20365;-78
2022/01/25 15:32:21;;;;;;;6.83;1.80;;;22.00;99.90;;;;;;5073072;28;20437;-78
2022/01/25 15:34:49;;;;;;;9.82;1.98;;;22.00;99.90;;;;;;5073189;28;20441;-78
2022/01/25 15:37:16;;;;;;;8.77;2.00;;;22.00;99.90;;;;;;5055183;28;20452;-82
2022/01/25 15:39:43;;;;;;;7.82;1.92;;;22.00;99.90;;;;;;5073009;28;20378;-83